Time,TemperatureF,DewpointF,PressureIn,WindDirection,WindDirectionDegrees,WindSpeedMPH,WindSpeedGustMPH,Humidity,HourlyPrecipIn,Conditions,Clouds,dailyrainin,SoftwareType,DateUTC
2013-10-22 00:04:00,34.0,29.0,-100.00,NW,310,2.0,3.0,83,-99.99,,,-99.99,,2013-10-22 05:04:00,
2013-10-22 00:11:00,33.0,30.0,-100.00,NW,315,4.0,6.0,89,-99.99,,,-99.99,,2013-10-22 05:11:00,
2013-10-22 00:43:00,33.0,30.0,-100.00,NW,315,4.0,6.0,89,-99.99,,,-99.99,,2013-10-22 05:43:00,
2013-10-22 00:52:00,33.0,30.0,-100.00,NW,315,4.0,6.0,89,-99.99,,,-99.99,,2013-10-22 05:52:00,
2013-10-22 01:02:00,33.0,30.0,-100.00,NW,315,4.0,6.0,89,-99.99,,,-99.99,,2013-10-22 06:02:00,
2013-10-22 01:43:00,33.0,30.0,-100.00,NW,315,5.0,6.0,89,-99.99,,,-99.99,,2013-10-22 06:43:00,
2013-10-22 01:54:00,33.0,30.0,-100.00,NW,315,5.0,6.0,89,-99.99,,,-99.99,,2013-10-22 06:54:00,
2013-10-22 02:02:00,33.0,30.0,-100.00,NW,315,5.0,6.0,89,-99.99,,,-99.99,,2013-10-22 07:02:00,
2013-10-22 02:11:00,33.0,30.0,-100.00,NW,310,5.0,6.0,89,-99.99,,,-99.99,,2013-10-22 07:11:00,
2013-10-22 02:42:00,33.0,30.0,-100.00,NW,310,5.0,6.0,89,-99.99,,,-99.99,,2013-10-22 07:42:00,
2013-10-22 02:52:00,33.0,30.0,-100.00,NW,310,5.0,6.0,89,-99.99,,,-99.99,,2013-10-22 07:52:00,
2013-10-22 03:02:00,33.0,30.0,-100.00,NW,310,5.0,6.0,89,-99.99,,,-99.99,,2013-10-22 08:02:00,
2013-10-22 03:42:00,33.0,31.0,-100.00,NW,310,5.0,7.0,92,-99.99,,,-99.99,,2013-10-22 08:42:00,
2013-10-22 03:52:00,33.0,31.0,-100.00,NW,310,5.0,7.0,92,-99.99,,,-99.99,,2013-10-22 08:52:00,
2013-10-22 04:02:00,33.0,31.0,-100.00,NW,310,5.0,7.0,92,-99.99,,,-99.99,,2013-10-22 09:02:00,
2013-10-22 04:43:00,33.0,31.0,-100.00,NW,315,5.0,6.0,93,-99.99,,,-99.99,,2013-10-22 09:43:00,
2013-10-22 04:54:00,33.0,31.0,-100.00,NW,315,5.0,6.0,93,-99.99,,,-99.99,,2013-10-22 09:54:00,
2013-10-22 05:03:00,33.0,31.0,-100.00,NW,315,5.0,6.0,93,-99.99,,,-99.99,,2013-10-22 10:03:00,
2013-10-22 05:43:00,33.0,32.0,-100.00,NW,320,4.0,6.0,95,-99.99,,,-99.99,,2013-10-22 10:43:00,
2013-10-22 05:53:00,33.0,32.0,-100.00,NW,320,4.0,6.0,95,-99.99,,,-99.99,,2013-10-22 10:53:00,
2013-10-22 06:03:00,33.0,32.0,-100.00,NW,320,4.0,6.0,95,-99.99,,,-99.99,,2013-10-22 11:03:00,
2013-10-22 06:42:00,33.0,32.0,-100.00,NW,320,6.0,6.0,95,-99.99,,,-99.99,,2013-10-22 11:42:00,
2013-10-22 06:53:00,33.0,32.0,-100.00,NW,320,6.0,6.0,95,-99.99,,,-99.99,,2013-10-22 11:53:00,
2013-10-22 07:01:00,33.0,32.0,-100.00,NW,320,6.0,6.0,95,-99.99,,,-99.99,,2013-10-22 12:01:00,
2013-10-22 07:42:00,33.0,32.0,-100.00,NW,315,6.0,6.0,95,-99.99,,,-99.99,,2013-10-22 12:42:00,
2013-10-22 07:52:00,33.0,32.0,-100.00,NW,315,6.0,6.0,95,-99.99,,,-99.99,,2013-10-22 12:52:00,
2013-10-22 08:01:00,33.0,32.0,-100.00,NW,315,6.0,6.0,95,-99.99,,,-99.99,,2013-10-22 13:01:00,
2013-10-22 08:42:00,33.0,32.0,-100.00,NW,315,7.0,8.0,95,-99.99,,,-99.99,,2013-10-22 13:42:00,
2013-10-22 08:53:00,33.0,32.0,-100.00,NW,315,7.0,8.0,95,-99.99,,,-99.99,,2013-10-22 13:53:00,
2013-10-22 09:02:00,33.0,32.0,-100.00,NW,315,7.0,8.0,95,-99.99,,,-99.99,,2013-10-22 14:02:00,
2013-10-22 09:42:00,33.0,32.0,-100.00,NW,320,4.0,5.0,94,-99.99,,,-99.99,,2013-10-22 14:42:00,
2013-10-22 09:52:00,33.0,32.0,-100.00,NW,320,4.0,5.0,94,-99.99,,,-99.99,,2013-10-22 14:52:00,
2013-10-22 10:01:00,33.0,32.0,-100.00,NW,320,4.0,5.0,94,-99.99,,,-99.99,,2013-10-22 15:01:00,
2013-10-22 10:10:00,34.0,32.0,-100.00,NW,310,6.0,7.0,93,-99.99,,,-99.99,,2013-10-22 15:10:00,
2013-10-22 10:43:00,34.0,32.0,-100.00,NW,310,6.0,7.0,93,-99.99,,,-99.99,,2013-10-22 15:43:00,
2013-10-22 10:54:00,34.0,32.0,-100.00,NW,310,6.0,7.0,93,-99.99,,,-99.99,,2013-10-22 15:54:00,
2013-10-22 11:04:00,34.0,32.0,-100.00,NW,310,6.0,7.0,93,-99.99,,,-99.99,,2013-10-22 16:04:00,
2013-10-22 11:10:00,36.0,33.0,-100.00,NNW,330,7.0,9.0,91,-99.99,,,-99.99,,2013-10-22 16:10:00,
2013-10-22 11:43:00,36.0,33.0,-100.00,NNW,330,7.0,9.0,91,-99.99,,,-99.99,,2013-10-22 16:43:00,
2013-10-22 11:53:00,36.0,33.0,-100.00,NNW,330,7.0,9.0,91,-99.99,,,-99.99,,2013-10-22 16:53:00,
2013-10-22 12:03:00,36.0,33.0,-100.00,NNW,330,7.0,9.0,91,-99.99,,,-99.99,,2013-10-22 17:03:00,
2013-10-22 12:43:00,37.0,34.0,-100.00,NW,315,10.0,12.0,87,-99.99,,,-99.99,,2013-10-22 17:43:00,
2013-10-22 12:52:00,37.0,34.0,-100.00,NW,315,10.0,12.0,87,-99.99,,,-99.99,,2013-10-22 17:52:00,
2013-10-22 13:02:00,37.0,34.0,-100.00,NW,315,10.0,12.0,87,-99.99,,,-99.99,,2013-10-22 18:02:00,
2013-10-22 13:42:00,37.0,33.0,-100.00,West,270,7.0,8.0,84,-99.99,,,-99.99,,2013-10-22 18:42:00,
2013-10-22 13:52:00,37.0,33.0,-100.00,West,270,7.0,8.0,84,-99.99,,,-99.99,,2013-10-22 18:52:00,
2013-10-22 14:02:00,37.0,33.0,-100.00,West,270,7.0,8.0,84,-99.99,,,-99.99,,2013-10-22 19:02:00,
2013-10-22 14:10:00,36.0,33.0,-100.00,North,350,7.0,9.0,90,-99.99,,,-99.99,,2013-10-22 19:10:00,
2013-10-22 14:43:00,36.0,33.0,-100.00,North,350,7.0,9.0,90,-99.99,,,-99.99,,2013-10-22 19:43:00,
2013-10-22 14:53:00,36.0,33.0,-100.00,North,350,7.0,9.0,90,-99.99,,,-99.99,,2013-10-22 19:53:00,
2013-10-22 15:02:00,36.0,33.0,-100.00,North,350,7.0,9.0,90,-99.99,,,-99.99,,2013-10-22 20:02:00,
2013-10-22 15:43:00,38.0,31.0,-100.00,NW,310,9.0,10.0,77,-99.99,,,-99.99,,2013-10-22 20:43:00,
2013-10-22 15:52:00,38.0,31.0,-100.00,NW,310,9.0,10.0,77,-99.99,,,-99.99,,2013-10-22 20:52:00,
2013-10-22 16:02:00,38.0,31.0,-100.00,NW,310,9.0,10.0,77,-99.99,,,-99.99,,2013-10-22 21:02:00,
2013-10-22 16:10:00,36.0,34.0,-100.00,West,275,6.0,7.0,91,-99.99,,,-99.99,,2013-10-22 21:10:00,
2013-10-22 16:44:00,36.0,34.0,-100.00,West,275,6.0,7.0,91,-99.99,,,-99.99,,2013-10-22 21:44:00,
2013-10-22 16:54:00,36.0,34.0,-100.00,West,275,6.0,7.0,91,-99.99,,,-99.99,,2013-10-22 21:54:00,
2013-10-22 17:04:00,36.0,34.0,-100.00,West,275,6.0,7.0,91,-99.99,,,-99.99,,2013-10-22 22:04:00,
2013-10-22 17:10:00,36.0,33.0,-100.00,NW,320,4.0,5.0,88,-99.99,,,-99.99,,2013-10-22 22:10:00,
2013-10-22 17:44:00,36.0,33.0,-100.00,NW,320,4.0,5.0,88,-99.99,,,-99.99,,2013-10-22 22:44:00,
2013-10-22 17:54:00,36.0,33.0,-100.00,NW,320,4.0,5.0,88,-99.99,,,-99.99,,2013-10-22 22:54:00,
2013-10-22 18:03:00,36.0,33.0,-100.00,NW,320,4.0,5.0,88,-99.99,,,-99.99,,2013-10-22 23:03:00,
2013-10-22 18:11:00,36.0,34.0,-100.00,West,270,3.0,4.0,91,-99.99,,,-99.99,,2013-10-22 23:11:00,
2013-10-22 18:43:00,36.0,34.0,-100.00,West,270,3.0,4.0,91,-99.99,,,-99.99,,2013-10-22 23:43:00,
2013-10-22 18:53:00,36.0,34.0,-100.00,West,270,3.0,4.0,91,-99.99,,,-99.99,,2013-10-22 23:53:00,
2013-10-22 19:02:00,36.0,34.0,-100.00,West,270,3.0,4.0,91,-99.99,,,-99.99,,2013-10-23 00:02:00,
2013-10-22 19:42:00,36.0,32.0,-100.00,NW,310,9.0,11.0,87,-99.99,,,-99.99,,2013-10-23 00:42:00,
2013-10-22 19:52:00,36.0,32.0,-100.00,NW,310,9.0,11.0,87,-99.99,,,-99.99,,2013-10-23 00:52:00,
2013-10-22 20:02:00,36.0,32.0,-100.00,NW,310,9.0,11.0,87,-99.99,,,-99.99,,2013-10-23 01:02:00,
2013-10-22 20:42:00,35.0,30.0,-100.00,NW,310,7.0,9.0,84,-99.99,,,-99.99,,2013-10-23 01:42:00,
2013-10-22 20:52:00,35.0,30.0,-100.00,NW,310,7.0,9.0,84,-99.99,,,-99.99,,2013-10-23 01:52:00,
2013-10-22 21:02:00,35.0,30.0,-100.00,NW,310,7.0,9.0,84,-99.99,,,-99.99,,2013-10-23 02:02:00,
2013-10-22 21:42:00,34.0,27.0,-100.00,NW,310,6.0,7.0,76,-99.99,,,-99.99,,2013-10-23 02:42:00,
2013-10-22 21:54:00,34.0,27.0,-100.00,NW,310,6.0,7.0,76,-99.99,,,-99.99,,2013-10-23 02:54:00,
2013-10-22 22:02:00,34.0,27.0,-100.00,NW,310,6.0,7.0,76,-99.99,,,-99.99,,2013-10-23 03:02:00,
2013-10-22 22:10:00,34.0,27.0,-100.00,WNW,290,6.0,6.0,76,-99.99,,,-99.99,,2013-10-23 03:10:00,
2013-10-22 22:44:00,34.0,27.0,-100.00,WNW,290,6.0,6.0,76,-99.99,,,-99.99,,2013-10-23 03:44:00,
2013-10-22 22:55:00,34.0,27.0,-100.00,WNW,290,6.0,6.0,76,-99.99,,,-99.99,,2013-10-23 03:55:00,
2013-10-22 23:04:00,34.0,27.0,-100.00,WNW,290,6.0,6.0,76,-99.99,,,-99.99,,2013-10-23 04:04:00,
2013-10-22 23:45:00,33.0,27.0,-100.00,NW,310,4.0,6.0,77,-99.99,,,-99.99,,2013-10-23 04:45:00,
2013-10-22 23:55:00,33.0,27.0,-100.00,NW,310,4.0,6.0,77,-99.99,,,-99.99,,2013-10-23 04:55:00,